sensor_id;sensor_type;location;lat;lon;timestamp;pressure;altitude;pressure_sealevel;temperature;humidity
27202;BME280;14717;46.924;15.474;2023-04-28T00:00:11;98209.84;;;9.37;80.02
27202;BME280;14717;46.924;15.474;2023-04-28T00:02:37;98210.66;;;9.28;80.09
27202;BME280;14717;46.924;15.474;2023-04-28T00:05:02;98210.66;;;9.03;80.81
27202;BME280;14717;46.924;15.474;2023-04-28T00:07:28;98216.75;;;9.15;81.16
27202;BME280;14717;46.924;15.474;2023-04-28T00:09:53;98217.84;;;9.09;80.17
27202;BME280;14717;46.924;15.474;2023-04-28T00:12:19;98212.34;;;9.09;81.14
27202;BME280;14717;46.924;15.474;2023-04-28T00:14:45;98205.16;;;9.18;81.56
27202;BME280;14717;46.924;15.474;2023-04-28T00:17:10;98213.16;;;9.30;82.13
27202;BME280;14717;46.924;15.474;2023-04-28T00:19:35;98212.34;;;9.19;83.55
27202;BME280;14717;46.924;15.474;2023-04-28T00:22:02;98206.28;;;9.12;84.07
27202;BME280;14717;46.924;15.474;2023-04-28T00:24:28;98203.25;;;9.14;84.32
27202;BME280;14717;46.924;15.474;2023-04-28T00:26:54;98200.75;;;9.07;85.02
27202;BME280;14717;46.924;15.474;2023-04-28T00:29:20;98192.50;;;9.12;84.83
27202;BME280;14717;46.924;15.474;2023-04-28T00:31:45;98190.56;;;8.93;84.96
27202;BME280;14717;46.924;15.474;2023-04-28T00:34:11;98184.22;;;8.92;85.63
27202;BME280;14717;46.924;15.474;2023-04-28T00:36:38;98182.56;;;8.91;85.20
27202;BME280;14717;46.924;15.474;2023-04-28T00:39:04;98185.03;;;8.88;85.08
27202;BME280;14717;46.924;15.474;2023-04-28T00:41:29;98193.00;;;8.70;84.50
27202;BME280;14717;46.924;15.474;2023-04-28T00:43:54;98188.03;;;8.62;86.32
27202;BME280;14717;46.924;15.474;2023-04-28T00:46:24;98190.22;;;8.50;86.64
27202;BME280;14717;46.924;15.474;2023-04-28T00:48:51;98192.72;;;8.56;86.35
27202;BME280;14717;46.924;15.474;2023-04-28T00:51:17;98196.28;;;8.57;85.78
27202;BME280;14717;46.924;15.474;2023-04-28T00:53:43;98194.63;;;8.66;85.22
27202;BME280;14717;46.924;15.474;2023-04-28T00:56:09;98184.16;;;8.48;85.02
27202;BME280;14717;46.924;15.474;2023-04-28T00:58:34;98192.00;;;8.15;86.51
27202;BME280;14717;46.924;15.474;2023-04-28T01:01:08;98182.38;;;8.12;87.58
27202;BME280;14717;46.924;15.474;2023-04-28T01:03:37;98191.75;;;8.16;87.39
27202;BME280;14717;46.924;15.474;2023-04-28T01:06:04;98181.78;;;8.05;87.61
27202;BME280;14717;46.924;15.474;2023-04-28T01:08:31;98189.41;;;7.89;87.19
27202;BME280;14717;46.924;15.474;2023-04-28T01:10:57;98182.78;;;7.90;87.60
27202;BME280;14717;46.924;15.474;2023-04-28T01:13:23;98182.53;;;7.91;87.69
27202;BME280;14717;46.924;15.474;2023-04-28T01:15:48;98187.81;;;8.03;87.97
27202;BME280;14717;46.924;15.474;2023-04-28T01:18:14;98180.94;;;8.10;88.37
27202;BME280;14717;46.924;15.474;2023-04-28T01:20:40;98183.69;;;8.05;86.96
27202;BME280;14717;46.924;15.474;2023-04-28T01:23:12;98184.22;;;7.97;86.65
27202;BME280;14717;46.924;15.474;2023-04-28T01:25:38;98183.88;;;7.84;85.95
27202;BME280;14717;46.924;15.474;2023-04-28T01:28:04;98186.66;;;7.89;87.13
27202;BME280;14717;46.924;15.474;2023-04-28T01:30:49;98187.53;;;7.99;87.31
27202;BME280;14717;46.924;15.474;2023-04-28T01:33:14;98184.50;;;8.01;86.83
27202;BME280;14717;46.924;15.474;2023-04-28T01:35:40;98193.81;;;7.95;86.58
27202;BME280;14717;46.924;15.474;2023-04-28T01:38:05;98192.13;;;7.79;86.97
27202;BME280;14717;46.924;15.474;2023-04-28T01:40:31;98188.13;;;7.60;88.75
27202;BME280;14717;46.924;15.474;2023-04-28T01:42:56;98191.09;;;7.49;89.42
27202;BME280;14717;46.924;15.474;2023-04-28T01:45:21;98191.09;;;7.49;90.02
27202;BME280;14717;46.924;15.474;2023-04-28T01:47:47;98186.78;;;7.58;90.34
27202;BME280;14717;46.924;15.474;2023-04-28T01:50:12;98186.81;;;7.67;90.19
27202;BME280;14717;46.924;15.474;2023-04-28T01:52:37;98175.81;;;7.67;89.96
27202;BME280;14717;46.924;15.474;2023-04-28T01:55:03;98173.06;;;7.67;90.23
27202;BME280;14717;46.924;15.474;2023-04-28T01:57:29;98178.13;;;7.90;90.29
27202;BME280;14717;46.924;15.474;2023-04-28T01:59:54;98167.44;;;7.94;90.56
27202;BME280;14717;46.924;15.474;2023-04-28T02:02:19;98178.47;;;8.04;89.96
27202;BME280;14717;46.924;15.474;2023-04-28T02:04:45;98173.25;;;8.07;89.40
27202;BME280;14717;46.924;15.474;2023-04-28T02:07:10;98161.41;;;8.06;89.05
27202;BME280;14717;46.924;15.474;2023-04-28T02:09:36;98157.63;;;8.17;88.85
27202;BME280;14717;46.924;15.474;2023-04-28T02:12:01;98167.84;;;8.22;88.77
27202;BME280;14717;46.924;15.474;2023-04-28T02:14:28;98174.41;;;8.16;89.17
27202;BME280;14717;46.924;15.474;2023-04-28T02:16:53;98174.69;;;8.19;89.36
27202;BME280;14717;46.924;15.474;2023-04-28T02:19:19;98182.16;;;8.29;89.08
27202;BME280;14717;46.924;15.474;2023-04-28T02:21:44;98174.72;;;8.24;89.24
27202;BME280;14717;46.924;15.474;2023-04-28T02:24:10;98165.66;;;8.29;88.59
27202;BME280;14717;46.924;15.474;2023-04-28T02:26:35;98176.91;;;8.22;89.18
27202;BME280;14717;46.924;15.474;2023-04-28T02:29:00;98180.19;;;8.14;89.24
27202;BME280;14717;46.924;15.474;2023-04-28T02:31:28;98184.31;;;8.12;89.35
27202;BME280;14717;46.924;15.474;2023-04-28T02:33:53;98176.53;;;7.99;90.09
27202;BME280;14717;46.924;15.474;2023-04-28T02:36:19;98188.63;;;8.03;90.20
27202;BME280;14717;46.924;15.474;2023-04-28T02:38:44;98179.28;;;7.99;90.06
27202;BME280;14717;46.924;15.474;2023-04-28T02:41:09;98180.84;;;7.85;90.00
27202;BME280;14717;46.924;15.474;2023-04-28T02:43:36;98186.81;;;7.67;91.14
27202;BME280;14717;46.924;15.474;2023-04-28T02:46:02;98180.94;;;7.54;90.69
27202;BME280;14717;46.924;15.474;2023-04-28T02:48:27;98180.84;;;7.39;92.10
27202;BME280;14717;46.924;15.474;2023-04-28T02:50:53;98182.03;;;7.48;92.63
27202;BME280;14717;46.924;15.474;2023-04-28T02:53:19;98185.06;;;7.52;92.22
27202;BME280;14717;46.924;15.474;2023-04-28T02:55:45;98183.38;;;7.46;92.57
27202;BME280;14717;46.924;15.474;2023-04-28T02:58:10;98185.44;;;7.24;92.89
27202;BME280;14717;46.924;15.474;2023-04-28T03:00:36;98191.13;;;7.18;92.50
27202;BME280;14717;46.924;15.474;2023-04-28T03:03:01;98193.28;;;7.11;92.78
27202;BME280;14717;46.924;15.474;2023-04-28T03:05:27;98196.63;;;7.18;93.04
27202;BME280;14717;46.924;15.474;2023-04-28T03:07:52;98196.06;;;7.16;93.53
27202;BME280;14717;46.924;15.474;2023-04-28T03:10:18;98193.81;;;7.08;93.98
27202;BME280;14717;46.924;15.474;2023-04-28T03:12:43;98189.16;;;7.08;93.87
27202;BME280;14717;46.924;15.474;2023-04-28T03:15:09;98184.72;;;7.02;93.18
27202;BME280;14717;46.924;15.474;2023-04-28T03:17:35;98172.91;;;7.02;93.53
27202;BME280;14717;46.924;15.474;2023-04-28T03:20:03;98167.75;;;7.10;93.96
27202;BME280;14717;46.924;15.474;2023-04-28T03:22:29;98168.94;;;7.24;93.37
27202;BME280;14717;46.924;15.474;2023-04-28T03:24:54;98164.56;;;7.23;92.87
27202;BME280;14717;46.924;15.474;2023-04-28T03:27:20;98161.28;;;7.31;92.33
27202;BME280;14717;46.924;15.474;2023-04-28T03:29:46;98166.25;;;7.34;92.70
27202;BME280;14717;46.924;15.474;2023-04-28T03:32:11;98161.31;;;7.36;93.03
27202;BME280;14717;46.924;15.474;2023-04-28T03:34:38;98152.28;;;7.40;92.98
27202;BME280;14717;46.924;15.474;2023-04-28T03:37:03;98150.41;;;7.51;92.70
27202;BME280;14717;46.924;15.474;2023-04-28T03:39:29;98154.78;;;7.42;92.61
27202;BME280;14717;46.924;15.474;2023-04-28T03:41:54;98139.03;;;7.32;92.25
27202;BME280;14717;46.924;15.474;2023-04-28T03:44:21;98149.78;;;7.34;92.60
27202;BME280;14717;46.924;15.474;2023-04-28T03:46:47;98152.78;;;7.32;92.81
27202;BME280;14717;46.924;15.474;2023-04-28T03:49:12;98154.34;;;7.19;93.29
27202;BME280;14717;46.924;15.474;2023-04-28T03:51:38;98156.84;;;7.20;93.03
27202;BME280;14717;46.924;15.474;2023-04-28T03:54:03;98158.72;;;7.19;93.22
27202;BME280;14717;46.924;15.474;2023-04-28T03:56:29;98158.25;;;7.27;93.74
27202;BME280;14717;46.924;15.474;2023-04-28T03:58:54;98155.78;;;7.31;93.41
27202;BME280;14717;46.924;15.474;2023-04-28T04:01:19;98158.28;;;7.32;93.23
27202;BME280;14717;46.924;15.474;2023-04-28T04:03:45;98153.94;;;7.36;93.20
27202;BME280;14717;46.924;15.474;2023-04-28T04:06:10;98161.63;;;7.39;92.54
27202;BME280;14717;46.924;15.474;2023-04-28T04:08:36;98167.34;;;7.28;92.82
27202;BME280;14717;46.924;15.474;2023-04-28T04:11:01;98170.41;;;7.36;93.46
27202;BME280;14717;46.924;15.474;2023-04-28T04:13:27;98163.53;;;7.39;92.86
27202;BME280;14717;46.924;15.474;2023-04-28T04:15:52;98170.75;;;7.45;92.15
27202;BME280;14717;46.924;15.474;2023-04-28T04:18:18;98172.41;;;7.51;92.75
27202;BME280;14717;46.924;15.474;2023-04-28T04:20:43;98170.47;;;7.46;92.33
27202;BME280;14717;46.924;15.474;2023-04-28T04:23:08;98160.56;;;7.45;93.22
27202;BME280;14717;46.924;15.474;2023-04-28T04:25:34;98169.88;;;7.44;93.17
27202;BME280;14717;46.924;15.474;2023-04-28T04:28:00;98166.66;;;7.52;93.47
27202;BME280;14717;46.924;15.474;2023-04-28T04:30:25;98162.03;;;7.58;93.74
27202;BME280;14717;46.924;15.474;2023-04-28T04:32:50;98161.78;;;7.64;93.58
27202;BME280;14717;46.924;15.474;2023-04-28T04:35:16;98163.94;;;7.62;93.71
27202;BME280;14717;46.924;15.474;2023-04-28T04:37:41;98168.09;;;7.64;93.76
27202;BME280;14717;46.924;15.474;2023-04-28T04:40:07;98163.94;;;7.62;93.00
27202;BME280;14717;46.924;15.474;2023-04-28T04:42:33;98160.69;;;7.70;92.79
27202;BME280;14717;46.924;15.474;2023-04-28T04:44:58;98157.41;;;7.73;92.79
27202;BME280;14717;46.924;15.474;2023-04-28T04:47:24;98163.53;;;7.90;92.50
27202;BME280;14717;46.924;15.474;2023-04-28T04:49:50;98152.25;;;7.86;92.47
27202;BME280;14717;46.924;15.474;2023-04-28T04:52:16;98155.34;;;8.00;92.73
27202;BME280;14717;46.924;15.474;2023-04-28T04:54:41;98157.00;;;8.01;92.13
27202;BME280;14717;46.924;15.474;2023-04-28T04:57:06;98157.81;;;8.01;92.75
27202;BME280;14717;46.924;15.474;2023-04-28T04:59:32;98153.09;;;7.92;93.69
27202;BME280;14717;46.924;15.474;2023-04-28T05:01:57;98152.06;;;8.07;93.37
27202;BME280;14717;46.924;15.474;2023-04-28T05:04:23;98156.81;;;8.17;92.68
27202;BME280;14717;46.924;15.474;2023-04-28T05:06:48;98149.94;;;8.24;91.12
27202;BME280;14717;46.924;15.474;2023-04-28T05:09:13;98142.25;;;8.26;91.51
27202;BME280;14717;46.924;15.474;2023-04-28T05:11:39;98149.69;;;8.31;92.13
27202;BME280;14717;46.924;15.474;2023-04-28T05:14:05;98155.22;;;8.36;92.29
27202;BME280;14717;46.924;15.474;2023-04-28T05:16:30;98153.28;;;8.46;91.94
27202;BME280;14717;46.924;15.474;2023-04-28T05:18:56;98159.94;;;8.55;92.53
27202;BME280;14717;46.924;15.474;2023-04-28T05:21:21;98155.53;;;8.59;91.62
27202;BME280;14717;46.924;15.474;2023-04-28T05:23:47;98162.16;;;8.63;91.44
27202;BME280;14717;46.924;15.474;2023-04-28T05:26:12;98156.38;;;8.59;91.11
27202;BME280;14717;46.924;15.474;2023-04-28T05:28:39;98159.69;;;8.76;90.36
27202;BME280;14717;46.924;15.474;2023-04-28T05:31:05;98149.78;;;8.90;89.15
27202;BME280;14717;46.924;15.474;2023-04-28T05:33:30;98142.91;;;8.97;88.00
27202;BME280;14717;46.924;15.474;2023-04-28T05:35:56;98147.88;;;9.00;87.85
27202;BME280;14717;46.924;15.474;2023-04-28T05:38:21;98139.03;;;8.93;87.55
27202;BME280;14717;46.924;15.474;2023-04-28T05:40:46;98141.50;;;9.00;87.51
27202;BME280;14717;46.924;15.474;2023-04-28T05:43:12;98141.50;;;9.00;87.08
27202;BME280;14717;46.924;15.474;2023-04-28T05:45:37;98148.13;;;8.99;87.37
27202;BME280;14717;46.924;15.474;2023-04-28T05:48:03;98146.72;;;9.16;87.44
27202;BME280;14717;46.924;15.474;2023-04-28T05:50:29;98151.41;;;9.26;86.91
27202;BME280;14717;46.924;15.474;2023-04-28T05:52:54;98148.66;;;9.26;86.30
27202;BME280;14717;46.924;15.474;2023-04-28T05:55:20;98141.78;;;9.08;87.16
27202;BME280;14717;46.924;15.474;2023-04-28T05:57:46;98140.69;;;8.94;87.76
27202;BME280;14717;46.924;15.474;2023-04-28T06:00:12;98132.44;;;8.85;89.08
27202;BME280;14717;46.924;15.474;2023-04-28T06:02:37;98137.13;;;8.89;88.95
27202;BME280;14717;46.924;15.474;2023-04-28T06:05:03;98137.38;;;9.12;88.12
27202;BME280;14717;46.924;15.474;2023-04-28T06:07:29;98140.66;;;9.39;87.49
27202;BME280;14717;46.924;15.474;2023-04-28T06:09:54;98140.34;;;9.55;86.22
27202;BME280;14717;46.924;15.474;2023-04-28T06:12:19;98137.84;;;9.59;85.00
27202;BME280;14717;46.924;15.474;2023-04-28T06:14:45;98133.38;;;9.73;84.23
27202;BME280;14717;46.924;15.474;2023-04-28T06:17:10;98125.09;;;9.73;83.72
27202;BME280;14717;46.924;15.474;2023-04-28T06:19:36;98123.44;;;9.81;83.08
27202;BME280;14717;46.924;15.474;2023-04-28T06:22:01;98136.94;;;9.83;82.70
27202;BME280;14717;46.924;15.474;2023-04-28T06:24:26;98134.47;;;9.81;82.04
27202;BME280;14717;46.924;15.474;2023-04-28T06:26:52;98135.81;;;9.89;81.74
27202;BME280;14717;46.924;15.474;2023-04-28T06:29:17;98138.00;;;9.92;81.24
27202;BME280;14717;46.924;15.474;2023-04-28T06:31:44;98131.63;;;10.06;80.72
27202;BME280;14717;46.924;15.474;2023-04-28T06:34:10;98146.75;;;10.18;79.35
27202;BME280;14717;46.924;15.474;2023-04-28T06:36:35;98151.38;;;10.33;79.49
27202;BME280;14717;46.924;15.474;2023-04-28T06:39:00;98144.53;;;10.25;80.97
27202;BME280;14717;46.924;15.474;2023-04-28T06:41:26;98147.03;;;10.22;80.02
27202;BME280;14717;46.924;15.474;2023-04-28T06:43:53;98145.75;;;10.48;79.23
27202;BME280;14717;46.924;15.474;2023-04-28T06:46:18;98144.16;;;10.42;78.54
27202;BME280;14717;46.924;15.474;2023-04-28T06:48:44;98130.91;;;10.39;79.79
27202;BME280;14717;46.924;15.474;2023-04-28T06:51:09;98136.13;;;10.45;78.08
27202;BME280;14717;46.924;15.474;2023-04-28T06:53:35;98120.31;;;10.56;76.69
27202;BME280;14717;46.924;15.474;2023-04-28T06:56:01;98123.78;;;10.71;77.86
27202;BME280;14717;46.924;15.474;2023-04-28T06:58:27;98134.50;;;10.77;77.59
27202;BME280;14717;46.924;15.474;2023-04-28T07:00:52;98143.25;;;10.89;75.45
27202;BME280;14717;46.924;15.474;2023-04-28T07:03:18;98143.66;;;10.78;75.21
27202;BME280;14717;46.924;15.474;2023-04-28T07:05:43;98144.41;;;10.88;75.11
27202;BME280;14717;46.924;15.474;2023-04-28T07:08:09;98129.91;;;11.01;75.30
27202;BME280;14717;46.924;15.474;2023-04-28T07:10:34;98138.78;;;10.98;74.57
27202;BME280;14717;46.924;15.474;2023-04-28T07:13:00;98127.06;;;11.11;72.91
27202;BME280;14717;46.924;15.474;2023-04-28T07:15:25;98124.69;;;11.28;74.92
27202;BME280;14717;46.924;15.474;2023-04-28T07:17:51;98124.84;;;11.69;71.97
27202;BME280;14717;46.924;15.474;2023-04-28T07:20:16;98114.50;;;12.03;74.19
27202;BME280;14717;46.924;15.474;2023-04-28T07:22:42;98118.44;;;11.97;70.23
27202;BME280;14717;46.924;15.474;2023-04-28T07:25:07;98120.28;;;11.83;71.27
27202;BME280;14717;46.924;15.474;2023-04-28T07:27:33;98120.69;;;11.95;70.13
27202;BME280;14717;46.924;15.474;2023-04-28T07:29:58;98120.78;;;11.85;71.12
27202;BME280;14717;46.924;15.474;2023-04-28T07:32:24;98117.38;;;11.93;69.29
27202;BME280;14717;46.924;15.474;2023-04-28T07:34:49;98111.41;;;11.81;69.11
27202;BME280;14717;46.924;15.474;2023-04-28T07:37:15;98111.72;;;12.03;70.57
27202;BME280;14717;46.924;15.474;2023-04-28T07:39:41;98108.28;;;12.11;72.33
27202;BME280;14717;46.924;15.474;2023-04-28T07:42:06;98095.84;;;12.08;71.78
27202;BME280;14717;46.924;15.474;2023-04-28T07:44:32;98096.03;;;12.17;68.34
27202;BME280;14717;46.924;15.474;2023-04-28T07:46:58;98102.94;;;12.37;69.24
27202;BME280;14717;46.924;15.474;2023-04-28T07:49:24;98106.22;;;12.39;70.00
27202;BME280;14717;46.924;15.474;2023-04-28T07:51:49;98103.66;;;12.25;66.25
27202;BME280;14717;46.924;15.474;2023-04-28T07:54:17;98102.03;;;12.60;66.49
27202;BME280;14717;46.924;15.474;2023-04-28T07:56:43;98098.50;;;12.73;64.96
27202;BME280;14717;46.924;15.474;2023-04-28T07:59:08;98088.78;;;12.75;65.94
27202;BME280;14717;46.924;15.474;2023-04-28T08:01:33;98086.78;;;13.13;64.67
27202;BME280;14717;46.924;15.474;2023-04-28T08:03:59;98100.53;;;13.04;64.66
27202;BME280;14717;46.924;15.474;2023-04-28T08:06:25;98084.44;;;12.88;62.58
27202;BME280;14717;46.924;15.474;2023-04-28T08:08:50;98090.81;;;12.70;61.52
27202;BME280;14717;46.924;15.474;2023-04-28T08:11:16;98081.78;;;12.78;64.15
27202;BME280;14717;46.924;15.474;2023-04-28T08:13:41;98089.31;;;12.96;60.70
27202;BME280;14717;46.924;15.474;2023-04-28T08:16:06;98090.19;;;12.73;59.66
27202;BME280;14717;46.924;15.474;2023-04-28T08:18:32;98089.16;;;12.69;61.65
27202;BME280;14717;46.924;15.474;2023-04-28T08:20:58;98073.84;;;12.72;63.55
27202;BME280;14717;46.924;15.474;2023-04-28T08:23:23;98078.44;;;12.63;63.28
27202;BME280;14717;46.924;15.474;2023-04-28T08:25:52;98086.91;;;12.71;63.31
27202;BME280;14717;46.924;15.474;2023-04-28T08:28:18;98093.44;;;12.80;62.98
27202;BME280;14717;46.924;15.474;2023-04-28T08:30:43;98087.13;;;12.74;64.33
27202;BME280;14717;46.924;15.474;2023-04-28T08:33:09;98093.91;;;12.87;64.12
27202;BME280;14717;46.924;15.474;2023-04-28T08:35:34;98086.34;;;13.06;64.10
27202;BME280;14717;46.924;15.474;2023-04-28T08:37:59;98076.25;;;12.78;64.47
27202;BME280;14717;46.924;15.474;2023-04-28T08:40:25;98076.50;;;12.81;64.75
27202;BME280;14717;46.924;15.474;2023-04-28T08:42:51;98077.69;;;13.25;62.43
27202;BME280;14717;46.924;15.474;2023-04-28T08:45:16;98075.59;;;13.18;61.38
27202;BME280;14717;46.924;15.474;2023-04-28T08:47:42;98071.22;;;13.30;63.50
27202;BME280;14717;46.924;15.474;2023-04-28T08:50:12;98069.50;;;13.47;62.96
27202;BME280;14717;46.924;15.474;2023-04-28T08:52:39;98076.22;;;13.60;60.56
27202;BME280;14717;46.924;15.474;2023-04-28T08:55:07;98068.41;;;13.61;61.88
27202;BME280;14717;46.924;15.474;2023-04-28T08:57:49;98064.00;;;13.74;61.89
27202;BME280;14717;46.924;15.474;2023-04-28T09:00:18;98050.53;;;13.81;60.11
27202;BME280;14717;46.924;15.474;2023-04-28T09:02:44;98057.00;;;13.76;59.98
27202;BME280;14717;46.924;15.474;2023-04-28T09:05:10;98063.34;;;13.77;59.69
27202;BME280;14717;46.924;15.474;2023-04-28T09:07:36;98070.38;;;13.74;60.37
27202;BME280;14717;46.924;15.474;2023-04-28T09:10:19;98052.03;;;13.87;61.03
27202;BME280;14717;46.924;15.474;2023-04-28T09:12:45;98056.56;;;13.96;60.41
27202;BME280;14717;46.924;15.474;2023-04-28T09:15:27;98064.50;;;13.76;61.48
27202;BME280;14717;46.924;15.474;2023-04-28T09:17:53;98064.19;;;13.91;59.85
27202;BME280;14717;46.924;15.474;2023-04-28T09:20:19;98076.03;;;13.83;60.26
27202;BME280;14717;46.924;15.474;2023-04-28T09:22:45;98074.81;;;13.89;59.94
27202;BME280;14717;46.924;15.474;2023-04-28T09:25:11;98065.56;;;14.06;59.75
27202;BME280;14717;46.924;15.474;2023-04-28T09:27:36;98067.59;;;14.14;57.74
27202;BME280;14717;46.924;15.474;2023-04-28T09:30:02;98060.59;;;14.30;58.51
27202;BME280;14717;46.924;15.474;2023-04-28T09:32:28;98066.88;;;14.22;60.11
27202;BME280;14717;46.924;15.474;2023-04-28T09:34:54;98063.38;;;14.30;60.57
27202;BME280;14717;46.924;15.474;2023-04-28T09:37:27;98058.38;;;14.41;60.09
27202;BME280;14717;46.924;15.474;2023-04-28T09:39:55;98054.69;;;14.45;58.39
27202;BME280;14717;46.924;15.474;2023-04-28T09:42:31;98048.88;;;14.55;61.54
27202;BME280;14717;46.924;15.474;2023-04-28T09:45:04;98054.25;;;14.16;59.23
27202;BME280;14717;46.924;15.474;2023-04-28T09:47:30;98046.91;;;14.20;60.76
27202;BME280;14717;46.924;15.474;2023-04-28T09:49:59;98043.00;;;14.21;61.06
27202;BME280;14717;46.924;15.474;2023-04-28T09:52:25;98043.41;;;14.02;60.64
27202;BME280;14717;46.924;15.474;2023-04-28T09:54:53;98045.28;;;14.06;60.67
27202;BME280;14717;46.924;15.474;2023-04-28T09:57:19;98043.06;;;14.43;59.60
27202;BME280;14717;46.924;15.474;2023-04-28T09:59:47;98042.28;;;14.64;59.01
27202;BME280;14717;46.924;15.474;2023-04-28T10:02:14;98030.97;;;14.61;58.66
27202;BME280;14717;46.924;15.474;2023-04-28T10:04:43;98024.91;;;14.81;59.30
27202;BME280;14717;46.924;15.474;2023-04-28T10:07:10;98027.38;;;15.04;57.49
27202;BME280;14717;46.924;15.474;2023-04-28T10:09:37;98030.41;;;15.16;57.48
27202;BME280;14717;46.924;15.474;2023-04-28T10:12:03;98021.84;;;15.12;58.94
27202;BME280;14717;46.924;15.474;2023-04-28T10:14:30;98022.44;;;14.79;58.96
27202;BME280;14717;46.924;15.474;2023-04-28T10:16:58;98012.88;;;14.50;60.57
27202;BME280;14717;46.924;15.474;2023-04-28T10:19:24;98008.53;;;14.57;60.54
27202;BME280;14717;46.924;15.474;2023-04-28T10:21:56;98006.81;;;14.70;60.10
27202;BME280;14717;46.924;15.474;2023-04-28T10:24:29;98014.97;;;14.88;60.14
27202;BME280;14717;46.924;15.474;2023-04-28T10:27:06;98007.16;;;14.98;61.42
27202;BME280;14717;46.924;15.474;2023-04-28T10:29:33;97995.81;;;14.87;58.97
27202;BME280;14717;46.924;15.474;2023-04-28T10:32:28;97990.50;;;14.77;61.96
27202;BME280;14717;46.924;15.474;2023-04-28T10:38:15;97986.94;;;15.28;56.63
27202;BME280;14717;46.924;15.474;2023-04-28T10:40:48;97977.16;;;15.39;57.00
27202;BME280;14717;46.924;15.474;2023-04-28T10:43:32;97982.69;;;15.69;56.63
27202;BME280;14717;46.924;15.474;2023-04-28T10:45:59;97970.44;;;15.78;54.20
27202;BME280;14717;46.924;15.474;2023-04-28T11:06:31;97948.84;;;15.92;56.73
27202;BME280;14717;46.924;15.474;2023-04-28T11:09:00;97948.22;;;16.12;55.24
27202;BME280;14717;46.924;15.474;2023-04-28T11:11:32;97944.91;;;16.10;53.54
27202;BME280;14717;46.924;15.474;2023-04-28T11:16:53;97932.34;;;16.29;53.54
27202;BME280;14717;46.924;15.474;2023-04-28T11:19:20;97928.25;;;16.27;51.43
27202;BME280;14717;46.924;15.474;2023-04-28T11:21:47;97917.41;;;16.51;52.71
27202;BME280;14717;46.924;15.474;2023-04-28T11:24:13;97916.09;;;16.65;51.27
27202;BME280;14717;46.924;15.474;2023-04-28T11:26:40;97912.81;;;16.71;51.59
27202;BME280;14717;46.924;15.474;2023-04-28T11:29:05;97911.31;;;16.15;52.28
27202;BME280;14717;46.924;15.474;2023-04-28T11:31:31;97905.59;;;16.20;52.67
27202;BME280;14717;46.924;15.474;2023-04-28T11:34:09;97897.03;;;16.75;52.11
27202;BME280;14717;46.924;15.474;2023-04-28T11:36:40;97900.34;;;17.31;52.25
27202;BME280;14717;46.924;15.474;2023-04-28T11:39:07;97895.56;;;17.32;52.41
27202;BME280;14717;46.924;15.474;2023-04-28T11:41:37;97886.25;;;17.56;51.14
27202;BME280;14717;46.924;15.474;2023-04-28T11:49:14;97877.91;;;16.32;56.44
27202;BME280;14717;46.924;15.474;2023-04-28T11:51:39;97873.28;;;16.19;55.89
27202;BME280;14717;46.924;15.474;2023-04-28T11:54:07;97881.13;;;16.00;54.84
27202;BME280;14717;46.924;15.474;2023-04-28T11:56:37;97880.59;;;15.65;56.03
27202;BME280;14717;46.924;15.474;2023-04-28T11:59:12;97880.13;;;15.71;56.74
27202;BME280;14717;46.924;15.474;2023-04-28T12:01:52;97879.69;;;16.28;56.20
27202;BME280;14717;46.924;15.474;2023-04-28T12:07:14;97873.09;;;16.74;52.85
27202;BME280;14717;46.924;15.474;2023-04-28T12:09:43;97867.06;;;17.09;51.61
27202;BME280;14717;46.924;15.474;2023-04-28T12:12:14;97866.47;;;16.87;52.84
27202;BME280;14717;46.924;15.474;2023-04-28T12:17:30;97866.69;;;17.28;51.68
27202;BME280;14717;46.924;15.474;2023-04-28T12:19:58;97864.22;;;17.26;51.39
27202;BME280;14717;46.924;15.474;2023-04-28T12:22:24;97859.38;;;17.44;50.62
27202;BME280;14717;46.924;15.474;2023-04-28T12:27:29;97844.63;;;17.63;53.38
27202;BME280;14717;46.924;15.474;2023-04-28T12:29:55;97842.00;;;17.87;51.39
27202;BME280;14717;46.924;15.474;2023-04-28T12:32:36;97844.53;;;18.00;49.83
27202;BME280;14717;46.924;15.474;2023-04-28T12:35:03;97840.84;;;17.88;50.38
27202;BME280;14717;46.924;15.474;2023-04-28T12:37:30;97848.53;;;17.71;50.31
27202;BME280;14717;46.924;15.474;2023-04-28T12:39:56;97848.25;;;17.35;51.46
27202;BME280;14717;46.924;15.474;2023-04-28T12:42:21;97850.31;;;17.09;52.85
27202;BME280;14717;46.924;15.474;2023-04-28T12:44:47;97848.59;;;17.34;51.91
27202;BME280;14717;46.924;15.474;2023-04-28T12:47:15;97843.06;;;17.25;51.91
27202;BME280;14717;46.924;15.474;2023-04-28T12:49:42;97839.91;;;17.27;52.03
27202;BME280;14717;46.924;15.474;2023-04-28T12:52:08;97832.41;;;17.10;51.44
27202;BME280;14717;46.924;15.474;2023-04-28T12:54:34;97831.00;;;17.33;52.13
27202;BME280;14717;46.924;15.474;2023-04-28T12:56:59;97827.47;;;17.45;52.26
27202;BME280;14717;46.924;15.474;2023-04-28T12:59:26;97830.75;;;17.09;52.21
27202;BME280;14717;46.924;15.474;2023-04-28T13:01:51;97822.28;;;17.35;53.06
27202;BME280;14717;46.924;15.474;2023-04-28T13:04:17;97825.53;;;17.45;52.19
27202;BME280;14717;46.924;15.474;2023-04-28T13:06:42;97816.50;;;17.68;51.48
27202;BME280;14717;46.924;15.474;2023-04-28T13:09:12;97812.63;;;17.81;51.25
27202;BME280;14717;46.924;15.474;2023-04-28T13:11:39;97810.56;;;17.70;51.21
27202;BME280;14717;46.924;15.474;2023-04-28T13:14:05;97808.78;;;17.37;52.50
27202;BME280;14717;46.924;15.474;2023-04-28T13:16:30;97811.69;;;17.48;50.99
27202;BME280;14717;46.924;15.474;2023-04-28T13:18:56;97803.28;;;17.77;51.16
27202;BME280;14717;46.924;15.474;2023-04-28T13:21:25;97801.34;;;17.69;51.04
27202;BME280;14717;46.924;15.474;2023-04-28T13:23:52;97789.56;;;17.84;51.27
27202;BME280;14717;46.924;15.474;2023-04-28T13:26:18;97795.88;;;17.52;50.68
27202;BME280;14717;46.924;15.474;2023-04-28T13:28:45;97793.28;;;17.48;51.91